Time;durP1;ratioP1;P1;durP2;ratioP2;P2;SDS_P1;SDS_P2;PMS_P1;PMS_P2;Temp;Humidity;BMP_temperature;BMP_pressure;BME280_temperature;BME280_humidity;BME280_pressure;Samples;Min_cycle;Max_cycle;Signal;HPM_P1;HPM_P2
2022/05/03 00:00:46;;;;;;;10.98;6.75;;;12.50;99.90;;;;;;5094999;28;20046;-75
2022/05/03 00:03:26;;;;;;;8.98;5.97;;;12.50;99.90;;;;;;5095539;28;20028;-75
2022/05/03 00:06:24;;;;;;;8.35;6.35;;;12.40;99.90;;;;;;5096601;28;20113;-75
2022/05/03 00:09:04;;;;;;;10.13;6.10;;;12.40;99.90;;;;;;5095602;28;20036;-75
2022/05/03 00:11:30;;;;;;;11.57;6.55;;;12.40;99.90;;;;;;5095828;28;20394;-75
2022/05/03 00:14:21;;;;;;;8.40;5.80;;;12.40;99.90;;;;;;5094882;28;20469;-75
2022/05/03 00:16:50;;;;;;;8.68;6.20;;;12.40;99.90;;;;;;5094346;28;20036;-75
2022/05/03 00:19:16;;;;;;;7.38;6.10;;;12.30;99.90;;;;;;5095233;28;20380;-75
2022/05/03 00:21:41;;;;;;;10.00;6.30;;;12.30;99.90;;;;;;5094513;28;20460;-75
2022/05/03 00:24:08;;;;;;;10.50;6.80;;;12.20;99.90;;;;;;5095116;28;20030;-74
2022/05/03 00:26:35;;;;;;;13.45;6.88;;;12.10;99.90;;;;;;5094399;28;20024;-75
2022/05/03 00:29:00;;;;;;;8.90;6.65;;;12.00;99.90;;;;;;5094841;28;20430;-75
2022/05/03 00:31:27;;;;;;;8.48;6.53;;;12.00;99.90;;;;;;5094628;28;20111;-77
2022/05/03 00:33:54;;;;;;;8.07;6.32;;;12.00;99.90;;;;;;5094803;28;20031;-75
2022/05/03 00:36:21;;;;;;;9.10;6.57;;;12.00;99.90;;;;;;5096093;28;20103;-74
2022/05/03 00:38:47;;;;;;;10.23;6.13;;;12.00;99.90;;;;;;5094181;28;20057;-75
2022/05/03 00:41:21;;;;;;;9.90;7.18;;;12.00;99.90;;;;;;5094673;28;20028;-74
2022/05/03 00:44:55;;;;;;;8.15;6.10;;;11.90;99.90;;;;;;5094153;28;20380;-75
2022/05/03 00:47:04;;;;;;;11.77;6.32;;;11.80;99.90;;;;;;5095290;28;20028;-75
2022/05/03 00:49:51;;;;;;;8.80;6.13;;;11.80;99.90;;;;;;5095452;28;20028;-75
2022/05/03 00:52:31;;;;;;;8.68;6.50;;;11.80;99.90;;;;;;5094629;28;20031;-75
2022/05/03 00:55:30;;;;;;;9.35;6.93;;;11.80;99.90;;;;;;5094384;28;20065;-74
2022/05/03 00:58:28;;;;;;;8.40;6.15;;;11.70;99.90;;;;;;5094409;28;20355;-75
2022/05/03 01:01:03;;;;;;;8.93;6.43;;;11.70;99.90;;;;;;5091861;28;20560;-75
2022/05/03 01:03:44;;;;;;;9.48;6.63;;;11.60;99.90;;;;;;5093913;28;20024;-75
2022/05/03 01:06:18;;;;;;;8.63;5.72;;;11.70;99.90;;;;;;5095474;28;20032;-75
2022/05/03 01:08:56;;;;;;;11.10;7.57;;;11.70;99.90;;;;;;5093708;28;20028;-75
2022/05/03 01:11:39;;;;;;;8.43;6.20;;;11.70;99.90;;;;;;5094038;28;20488;-75
2022/05/03 01:14:13;;;;;;;8.48;6.55;;;11.70;99.90;;;;;;5094101;28;20477;-74
2022/05/03 01:16:55;;;;;;;8.63;6.38;;;11.70;99.90;;;;;;5093622;28;20350;-75
2022/05/03 01:19:59;;;;;;;9.73;6.63;;;11.60;99.90;;;;;;5093972;28;20508;-75
2022/05/03 01:23:02;;;;;;;8.13;6.43;;;11.50;99.90;;;;;;5093858;28;20066;-75
2022/05/03 01:26:05;;;;;;;8.82;6.47;;;11.40;99.90;;;;;;5094807;28;20491;-75
2022/05/03 01:28:53;;;;;;;9.07;6.40;;;11.40;99.90;;;;;;5094543;28;20034;-75
2022/05/03 01:31:19;;;;;;;8.57;6.72;;;11.40;99.90;;;;;;5093767;28;20031;-75
2022/05/03 01:33:45;;;;;;;9.40;5.88;;;11.40;99.90;;;;;;5094354;28;20024;-75
2022/05/03 01:36:15;;;;;;;8.80;6.15;;;11.30;99.90;;;;;;5094904;28;20038;-75
2022/05/03 01:39:16;;;;;;;8.15;5.68;;;11.30;99.90;;;;;;5093125;28;20024;-75
2022/05/03 01:42:18;;;;;;;8.90;6.38;;;11.30;99.90;;;;;;5087801;28;20101;-75
2022/05/03 01:44:49;;;;;;;;;;;11.30;99.90;;;;;;5094641;28;20027;-75
2022/05/03 01:47:25;;;;;;;8.63;5.78;;;11.30;99.90;;;;;;5093526;28;19912;-75
2022/05/03 01:50:19;;;;;;;9.15;6.00;;;11.30;99.90;;;;;;5092840;28;20495;-75
2022/05/03 01:52:57;;;;;;;9.43;6.47;;;11.30;99.90;;;;;;5094146;28;20027;-75
2022/05/03 01:55:59;;;;;;;10.73;6.40;;;11.30;99.90;;;;;;5093340;28;20032;-75
2022/05/03 01:59:09;;;;;;;7.82;5.97;;;11.30;99.90;;;;;;5093182;28;20075;-75
2022/05/03 02:01:40;;;;;;;8.88;6.28;;;11.20;99.90;;;;;;5093594;28;20047;-75
2022/05/03 02:04:06;;;;;;;8.32;6.47;;;11.20;99.90;;;;;;5093081;28;20377;-75
2022/05/03 02:06:54;;;;;;;10.80;6.70;;;11.20;99.90;;;;;;5094028;28;20028;-77
2022/05/03 02:09:28;;;;;;;10.82;6.22;;;11.20;99.90;;;;;;5092839;28;20024;-75
2022/05/03 02:12:08;;;;;;;10.98;6.43;;;11.20;99.90;;;;;;5091932;28;20051;-75
2022/05/03 02:14:44;;;;;;;8.75;6.40;;;11.10;99.90;;;;;;5092592;28;20032;-75
2022/05/03 02:17:37;;;;;;;8.00;6.25;;;11.10;99.90;;;;;;5092979;28;20039;-75
2022/05/03 02:20:28;;;;;;;10.73;6.90;;;11.10;99.90;;;;;;5093087;28;20350;-75
2022/05/03 02:23:12;;;;;;;9.27;6.33;;;11.20;99.90;;;;;;5092279;28;20073;-74
2022/05/03 02:26:19;;;;;;;10.57;6.40;;;11.20;99.90;;;;;;5091894;28;20073;-75
2022/05/03 02:29:03;;;;;;;9.15;6.07;;;11.20;99.90;;;;;;5093513;28;20024;-75
2022/05/03 02:31:43;;;;;;;10.40;6.45;;;11.10;99.90;;;;;;5092590;28;20051;-75
2022/05/03 02:34:28;;;;;;;8.35;6.20;;;11.10;99.90;;;;;;5092659;28;20558;-75
2022/05/03 02:36:58;;;;;;;9.07;6.55;;;11.10;99.90;;;;;;5093341;28;20603;-75
2022/05/03 02:39:29;;;;;;;10.65;6.65;;;10.90;99.90;;;;;;5092485;28;20039;-75
2022/05/03 02:41:58;;;;;;;8.93;6.57;;;10.90;99.90;;;;;;5093098;28;20024;-75
2022/05/03 02:44:28;;;;;;;9.18;6.10;;;10.90;99.90;;;;;;5092472;28;20031;-75
2022/05/03 02:47:09;;;;;;;7.50;5.82;;;10.80;99.90;;;;;;5091720;28;20024;-75
2022/05/03 02:49:54;;;;;;;7.30;5.70;;;10.70;99.90;;;;;;5092096;28;20024;-77
2022/05/03 02:52:29;;;;;;;8.07;6.40;;;10.60;99.90;;;;;;5093686;28;20020;-73
2022/05/03 02:55:12;;;;;;;7.32;6.13;;;10.50;99.90;;;;;;5091999;28;20304;-74
2022/05/03 02:57:50;;;;;;;10.07;6.97;;;10.50;99.90;;;;;;5091761;28;20082;-74
2022/05/03 03:03:44;;;;;;;9.63;6.55;;;10.50;99.90;;;;;;5093458;28;20043;-74
2022/05/03 03:06:21;;;;;;;9.10;6.30;;;10.50;99.90;;;;;;5092162;28;20028;-74
2022/05/03 03:08:51;;;;;;;8.82;6.55;;;10.40;99.90;;;;;;5091443;28;20039;-74
2022/05/03 03:11:35;;;;;;;9.20;6.88;;;10.40;99.90;;;;;;5093522;28;20047;-74
2022/05/03 03:14:35;;;;;;;8.60;6.47;;;10.40;99.90;;;;;;5093266;28;20024;-74
2022/05/03 03:17:05;;;;;;;8.45;6.00;;;10.40;99.90;;;;;;5037230;28;20036;-74
2022/05/03 03:19:44;;;;;;;8.18;5.82;;;10.50;99.90;;;;;;5091716;28;20027;-74
2022/05/03 03:22:15;;;;;;;9.80;6.22;;;10.50;99.90;;;;;;5091904;28;20035;-74
2022/05/03 03:24:42;;;;;;;9.50;6.28;;;10.50;99.90;;;;;;5091114;28;20115;-74
2022/05/03 03:27:10;;;;;;;10.40;6.05;;;10.50;99.90;;;;;;5091739;28;20024;-74
2022/05/03 03:29:39;;;;;;;8.40;5.95;;;10.50;99.90;;;;;;5091697;28;20028;-74
2022/05/03 03:32:12;;;;;;;8.75;6.07;;;10.40;99.90;;;;;;5092824;28;20054;-74
2022/05/03 03:34:41;;;;;;;9.23;6.65;;;10.40;99.90;;;;;;5091261;28;20028;-75
2022/05/03 03:37:07;;;;;;;10.98;6.32;;;10.40;99.90;;;;;;5092835;28;20086;-74
2022/05/03 03:39:34;;;;;;;9.35;6.10;;;10.30;99.90;;;;;;5092907;28;20543;-73
2022/05/03 03:42:05;;;;;;;8.82;6.63;;;10.30;99.90;;;;;;5090914;28;20039;-74
2022/05/03 03:44:31;;;;;;;11.70;6.70;;;10.30;99.90;;;;;;5092807;28;20042;-74
2022/05/03 03:47:02;;;;;;;8.75;6.32;;;10.30;99.90;;;;;;5092169;28;20571;-74
2022/05/03 03:49:34;;;;;;;7.95;6.65;;;10.20;99.90;;;;;;5091539;28;20362;-74
2022/05/03 03:51:59;;;;;;;;;;;10.30;99.90;;;;;;5091214;28;20035;-74
2022/05/03 03:54:26;;;;;;;10.00;6.18;;;10.30;99.90;;;;;;5091384;28;19904;-74
2022/05/03 03:56:53;;;;;;;9.45;5.90;;;10.30;99.90;;;;;;5092078;28;20508;-74
2022/05/03 03:59:19;;;;;;;9.15;6.70;;;10.30;99.90;;;;;;5090857;28;20509;-74
2022/05/03 04:01:45;;;;;;;9.23;6.57;;;10.20;99.90;;;;;;5090775;28;20027;-75
2022/05/03 04:04:12;;;;;;;7.82;6.25;;;10.20;99.90;;;;;;5091379;28;20380;-74
2022/05/03 04:06:38;;;;;;;8.32;6.43;;;10.20;99.90;;;;;;5092609;28;20530;-74
2022/05/03 04:09:04;;;;;;;9.70;5.90;;;10.20;99.90;;;;;;5091892;28;20060;-74
2022/05/03 04:11:45;;;;;;;9.25;6.15;;;10.20;99.90;;;;;;5091354;28;20480;-74
2022/05/03 04:14:14;;;;;;;7.85;5.72;;;10.30;99.90;;;;;;5091613;28;20111;-74
2022/05/03 04:16:41;;;;;;;8.57;5.88;;;10.30;99.90;;;;;;5090697;28;20078;-75
2022/05/03 04:19:07;;;;;;;8.10;5.90;;;10.30;99.90;;;;;;5092549;28;20030;-74
2022/05/03 04:21:33;;;;;;;8.52;6.55;;;10.30;99.90;;;;;;5091077;28;20029;-73
2022/05/03 04:23:59;;;;;;;9.73;6.43;;;10.40;99.90;;;;;;5090588;28;20115;-74
2022/05/03 04:26:25;;;;;;;8.05;6.10;;;10.30;99.90;;;;;;5091116;28;20077;-74
2022/05/03 04:28:56;;;;;;;8.48;6.63;;;10.40;99.90;;;;;;5090639;28;20036;-74
2022/05/03 04:31:27;;;;;;;9.40;6.47;;;10.50;99.90;;;;;;5091160;28;20032;-74
2022/05/03 04:33:54;;;;;;;7.30;6.05;;;10.50;99.90;;;;;;5091911;28;20028;-73
2022/05/03 04:36:20;;;;;;;8.38;6.20;;;10.50;99.90;;;;;;5094240;28;20089;-74
2022/05/03 04:38:47;;;;;;;7.72;5.82;;;10.50;99.90;;;;;;5094317;28;20024;-74
2022/05/03 04:41:12;;;;;;;11.57;6.15;;;10.50;99.90;;;;;;5094638;28;20063;-74
2022/05/03 04:43:38;;;;;;;9.30;6.90;;;10.50;99.90;;;;;;5094682;28;20028;-74
2022/05/03 04:46:03;;;;;;;7.68;6.18;;;10.50;99.90;;;;;;5095316;28;20115;-74
2022/05/03 04:48:29;;;;;;;8.38;6.07;;;10.50;99.90;;;;;;5094759;28;20483;-74
2022/05/03 04:50:55;;;;;;;10.20;6.50;;;10.50;99.90;;;;;;5094002;28;20081;-74
2022/05/03 04:53:22;;;;;;;9.27;6.50;;;10.50;99.90;;;;;;5095450;28;20025;-74
2022/05/03 04:55:48;;;;;;;10.35;6.50;;;10.50;99.90;;;;;;5095109;28;20080;-74
2022/05/03 04:58:14;;;;;;;10.40;6.90;;;10.50;99.90;;;;;;5094421;28;20377;-74
2022/05/03 05:00:39;;;;;;;9.98;6.93;;;10.50;99.90;;;;;;5094521;28;20024;-74
2022/05/03 05:03:05;;;;;;;9.63;6.43;;;10.40;99.90;;;;;;5095066;28;20032;-74
2022/05/03 05:05:31;;;;;;;13.70;6.97;;;10.40;99.90;;;;;;5094298;28;20038;-74
2022/05/03 05:08:02;;;;;;;8.98;6.50;;;10.40;99.90;;;;;;5093864;28;20039;-74
2022/05/03 05:10:28;;;;;;;10.00;6.60;;;10.40;99.90;;;;;;5095651;28;20063;-74
2022/05/03 05:12:54;;;;;;;9.43;6.78;;;10.50;99.90;;;;;;5093726;28;20409;-74
2022/05/03 05:15:23;;;;;;;12.25;6.90;;;10.50;99.90;;;;;;5094069;28;20035;-74
2022/05/03 05:17:50;;;;;;;8.52;6.28;;;10.50;99.90;;;;;;5094964;28;20096;-74
2022/05/03 05:20:15;;;;;;;9.90;7.20;;;10.50;99.90;;;;;;5093972;28;20024;-74
2022/05/03 05:22:42;;;;;;;13.20;7.20;;;10.50;99.90;;;;;;5094854;28;20073;-74
2022/05/03 05:25:09;;;;;;;10.05;7.18;;;10.40;99.90;;;;;;5093238;28;20077;-74
2022/05/03 05:27:34;;;;;;;12.10;7.03;;;10.50;99.90;;;;;;5093789;28;20032;-74
2022/05/03 05:30:00;;;;;;;9.25;7.18;;;10.60;99.90;;;;;;5093261;28;20031;-74
2022/05/03 05:32:25;;;;;;;10.43;6.97;;;10.60;99.90;;;;;;5093768;28;20044;-74
2022/05/03 05:34:51;;;;;;;9.48;6.65;;;10.60;99.90;;;;;;5093154;28;20085;-74
2022/05/03 05:37:17;;;;;;;11.35;6.90;;;10.70;99.90;;;;;;5093604;28;20034;-74
2022/05/03 05:39:42;;;;;;;9.88;7.38;;;10.70;99.90;;;;;;5093452;28;20028;-74
2022/05/03 05:42:08;;;;;;;10.40;6.82;;;10.70;99.90;;;;;;5093059;28;20115;-73
2022/05/03 05:44:35;;;;;;;9.18;6.60;;;10.70;99.90;;;;;;5093508;28;20453;-74
2022/05/03 05:47:01;;;;;;;9.23;7.30;;;10.80;99.90;;;;;;5091756;28;20032;-74
2022/05/03 05:49:26;;;;;;;9.48;6.75;;;10.90;99.90;;;;;;5093412;28;20389;-74
2022/05/03 05:53:31;;;;;;;8.35;6.72;;;10.90;99.90;;;;;;5092841;28;20059;-74
2022/05/03 05:54:37;;;;;;;13.18;7.18;;;11.00;99.90;;;;;;5094263;28;20032;-74
2022/05/03 05:57:03;;;;;;;9.02;6.43;;;11.00;99.90;;;;;;5092795;28;20055;-74
2022/05/03 05:59:29;;;;;;;7.95;6.63;;;11.00;99.90;;;;;;5093170;28;20481;-74
2022/05/03 06:01:54;;;;;;;8.30;6.68;;;11.00;99.90;;;;;;5092385;28;20101;-74
2022/05/03 06:04:20;;;;;;;7.82;6.40;;;11.10;99.90;;;;;;5094476;28;20031;-74
2022/05/03 06:06:46;;;;;;;9.70;6.97;;;11.20;99.90;;;;;;5093011;28;20127;-73
2022/05/03 06:09:11;;;;;;;10.95;7.10;;;11.30;99.90;;;;;;5092870;28;20366;-75
2022/05/03 06:11:37;;;;;;;11.20;6.95;;;11.30;99.90;;;;;;5092742;28;20124;-75
2022/05/03 06:14:02;;;;;;;8.98;6.78;;;11.30;99.90;;;;;;5092305;28;20027;-75
2022/05/03 06:16:28;;;;;;;10.45;6.25;;;11.30;99.90;;;;;;5093157;28;20032;-75
2022/05/03 06:18:54;;;;;;;8.60;6.32;;;11.40;99.90;;;;;;5092392;28;20373;-75
2022/05/03 06:21:19;;;;;;;10.20;7.13;;;11.40;99.90;;;;;;5092797;28;20384;-75
2022/05/03 06:23:45;;;;;;;10.88;7.10;;;11.40;99.90;;;;;;5092818;28;20067;-75
2022/05/03 06:26:11;;;;;;;9.80;7.05;;;11.50;99.90;;;;;;5092165;28;20092;-75
2022/05/03 06:28:36;;;;;;;10.40;6.88;;;11.50;99.90;;;;;;5092652;28;20060;-75
2022/05/03 06:31:04;;;;;;;9.70;6.95;;;11.50;99.90;;;;;;5092044;28;20477;-75
2022/05/03 06:33:30;;;;;;;8.35;6.32;;;11.50;99.90;;;;;;5092206;28;20051;-75
2022/05/03 06:35:56;;;;;;;13.13;6.90;;;11.50;99.90;;;;;;5093557;28;20059;-75
2022/05/03 06:38:21;;;;;;;9.73;6.32;;;11.60;99.90;;;;;;5092681;28;20085;-75
2022/05/03 06:40:48;;;;;;;9.98;6.72;;;11.70;99.90;;;;;;5092537;28;20043;-75
2022/05/03 06:43:13;;;;;;;8.85;6.38;;;11.80;99.90;;;;;;5092651;28;20024;-75
2022/05/03 06:45:39;;;;;;;9.10;7.05;;;11.80;99.90;;;;;;5093370;28;20438;-75
2022/05/03 06:48:06;;;;;;;9.77;7.15;;;11.90;99.90;;;;;;5091920;28;20028;-75
2022/05/03 06:50:32;;;;;;;12.45;7.63;;;11.90;99.90;;;;;;5092230;28;20114;-75
2022/05/03 06:52:58;;;;;;;10.93;8.05;;;12.00;99.90;;;;;;5091610;28;20109;-75
2022/05/03 06:55:24;;;;;;;13.85;7.68;;;12.10;99.90;;;;;;5092525;28;20028;-75
2022/05/03 06:57:49;;;;;;;9.98;8.13;;;12.10;99.90;;;;;;5093048;28;20035;-77
2022/05/03 07:00:15;;;;;;;13.32;9.40;;;12.20;99.90;;;;;;5091639;28;20048;-75
2022/05/03 07:02:44;;;;;;;10.45;8.30;;;12.30;99.90;;;;;;5092040;28;20028;-75
2022/05/03 07:05:10;;;;;;;13.07;9.05;;;12.40;99.90;;;;;;5092854;28;20047;-74
2022/05/03 07:07:36;;;;;;;12.52;9.27;;;12.40;99.90;;;;;;5093148;28;20058;-75
2022/05/03 07:10:02;;;;;;;13.93;9.20;;;12.50;99.90;;;;;;5093018;28;20067;-75
2022/05/03 07:12:29;;;;;;;13.60;9.13;;;12.60;99.90;;;;;;5093126;28;20039;-75
2022/05/03 07:14:59;;;;;;;12.95;8.82;;;12.70;99.90;;;;;;5091314;28;20024;-75
2022/05/03 07:22:58;;;;;;;12.63;8.18;;;13.00;99.90;;;;;;5072580;28;20028;-75
2022/05/03 07:25:24;;;;;;;12.98;8.10;;;13.10;99.90;;;;;;5092826;28;20028;-75
2022/05/03 07:27:50;;;;;;;10.13;8.05;;;13.20;99.90;;;;;;5092951;28;20024;-75
2022/05/03 07:30:16;;;;;;;11.57;7.90;;;13.30;99.90;;;;;;5091100;28;20048;-75
2022/05/03 07:32:45;;;;;;;11.57;7.93;;;13.40;99.90;;;;;;5091739;28;20061;-75
2022/05/03 07:35:12;;;;;;;10.80;8.27;;;13.50;99.90;;;;;;5091004;28;20350;-75
2022/05/03 07:37:39;;;;;;;9.65;7.53;;;13.50;99.90;;;;;;5091627;28;20436;-75
2022/05/03 07:40:06;;;;;;;12.60;8.50;;;13.50;99.90;;;;;;5090904;28;20071;-75
2022/05/03 07:42:32;;;;;;;11.20;8.55;;;13.60;99.90;;;;;;5091544;28;20078;-74
2022/05/03 07:44:58;;;;;;;13.27;8.50;;;13.60;99.90;;;;;;5092241;28;20381;-75
2022/05/03 07:47:24;;;;;;;9.80;7.68;;;13.70;99.90;;;;;;5091397;28;20465;-75
2022/05/03 07:49:50;;;;;;;10.90;7.63;;;13.70;99.90;;;;;;5092719;28;20032;-75
2022/05/03 07:52:15;;;;;;;13.15;8.52;;;13.80;99.90;;;;;;5091002;28;20031;-75
2022/05/03 07:54:42;;;;;;;12.32;8.20;;;13.80;99.90;;;;;;5091566;28;20055;-74
2022/05/03 07:57:09;;;;;;;13.88;8.52;;;13.90;99.90;;;;;;5090896;28;20032;-75
2022/05/03 07:59:34;;;;;;;10.88;8.20;;;13.90;99.90;;;;;;5090771;28;20055;-75
2022/05/03 08:02:00;;;;;;;12.20;8.48;;;13.90;99.90;;;;;;5090743;28;20024;-75
2022/05/03 08:04:26;;;;;;;18.02;8.68;;;14.00;99.90;;;;;;5091322;28;20354;-75
2022/05/03 08:06:52;;;;;;;13.27;8.55;;;14.00;99.90;;;;;;5092419;28;20039;-74
2022/05/03 08:09:18;;;;;;;13.93;8.38;;;14.10;99.90;;;;;;5091925;28;20024;-75
2022/05/03 08:11:44;;;;;;;11.18;8.32;;;14.20;99.90;;;;;;5094088;28;20036;-75
2022/05/03 08:14:09;;;;;;;14.55;8.43;;;14.20;99.90;;;;;;5094778;28;20120;-75
2022/05/03 08:16:38;;;;;;;11.50;8.30;;;14.20;99.90;;;;;;5095253;28;20032;-74
2022/05/03 08:19:04;;;;;;;14.50;8.70;;;14.20;99.90;;;;;;5094677;28;20024;-75
2022/05/03 08:21:32;;;;;;;12.45;8.23;;;14.30;99.90;;;;;;5095238;28;20526;-74
2022/05/03 08:23:58;;;;;;;12.88;7.72;;;14.30;99.90;;;;;;5095901;28;20024;-75
2022/05/03 08:26:24;;;;;;;12.20;7.88;;;14.50;99.90;;;;;;5096207;28;20025;-74
2022/05/03 08:28:50;;;;;;;12.40;7.90;;;14.50;99.90;;;;;;5095073;28;20085;-74
2022/05/03 08:31:15;;;;;;;10.40;7.15;;;14.50;99.90;;;;;;5094505;28;20051;-74
2022/05/03 08:33:41;;;;;;;9.57;7.15;;;14.60;99.90;;;;;;5094900;28;20032;-74
2022/05/03 08:36:07;;;;;;;10.55;6.68;;;14.70;99.90;;;;;;5094300;28;20024;-74
2022/05/03 08:44:01;;;;;;;12.65;6.95;;;14.90;99.90;;;;;;5095373;28;20496;-75
2022/05/03 08:46:29;;;;;;;10.23;7.05;;;15.00;99.90;;;;;;5094588;28;20055;-74
2022/05/03 08:49:03;;;;;;;10.55;7.75;;;15.00;99.90;;;;;;5095908;28;20496;-74
2022/05/03 08:51:31;;;;;;;11.27;7.22;;;15.10;99.90;;;;;;5095799;28;20024;-74
2022/05/03 08:53:58;;;;;;;10.32;7.47;;;15.10;99.90;;;;;;5095212;28;20024;-76
2022/05/03 08:56:24;;;;;;;12.38;7.00;;;15.10;99.90;;;;;;5094689;28;20028;-74
2022/05/03 08:58:51;;;;;;;10.73;7.13;;;15.20;99.90;;;;;;5094327;28;20055;-74
2022/05/03 09:01:18;;;;;;;11.93;7.10;;;15.20;99.90;;;;;;5093819;28;20108;-74
2022/05/03 09:03:44;;;;;;;9.43;6.97;;;15.30;99.90;;;;;;5095642;28;20016;-74
2022/05/03 09:06:10;;;;;;;10.05;7.18;;;15.40;99.90;;;;;;5093650;28;20469;-75
2022/05/03 09:08:35;;;;;;;9.23;6.65;;;15.50;99.90;;;;;;5094211;28;20024;-75
2022/05/03 09:11:15;;;;;;;9.90;7.32;;;15.50;99.90;;;;;;5095165;28;20040;-75
2022/05/03 09:13:42;;;;;;;11.98;7.70;;;15.50;99.90;;;;;;5094122;28;20115;-75
2022/05/03 09:16:13;;;;;;;9.77;7.30;;;15.70;99.90;;;;;;5094769;28;20489;-75
2022/05/03 09:18:39;;;;;;;10.07;6.70;;;15.80;99.90;;;;;;5095302;28;20024;-74
2022/05/03 09:24:11;;;;;;;7.75;6.30;;;16.10;99.90;;;;;;5094799;28;20035;-75
2022/05/03 09:26:40;;;;;;;8.93;6.40;;;16.30;99.90;;;;;;5093747;28;20028;-75
2022/05/03 09:29:11;;;;;;;8.27;6.45;;;16.40;99.90;;;;;;5093179;28;20024;-75
2022/05/03 09:31:36;;;;;;;11.80;6.25;;;16.40;99.90;;;;;;5093765;28;20024;-74
2022/05/03 09:34:05;;;;;;;9.45;6.28;;;16.50;99.90;;;;;;5093155;28;20039;-75
2022/05/03 09:36:44;;;;;;;7.78;6.32;;;16.50;99.90;;;;;;5094985;28;20081;-74
2022/05/03 09:39:24;;;;;;;9.88;6.57;;;16.50;99.90;;;;;;5093054;28;20024;-75
2022/05/03 09:42:16;;;;;;;11.35;5.63;;;16.60;99.90;;;;;;5093679;28;20161;-74
2022/05/03 09:44:58;;;;;;;8.15;5.07;;;16.70;99.90;;;;;;5094863;28;20058;-74
2022/05/03 09:47:33;;;;;;;7.15;4.80;;;16.60;99.90;;;;;;5094208;28;20035;-74
2022/05/03 09:50:00;;;;;;;7.38;4.80;;;16.70;99.90;;;;;;5093509;28;20059;-74
2022/05/03 09:52:33;;;;;;;8.30;4.40;;;16.70;99.90;;;;;;5093379;28;20035;-75
2022/05/03 09:55:05;;;;;;;11.82;4.32;;;16.80;99.90;;;;;;5093350;28;20080;-74
2022/05/03 09:57:35;;;;;;;6.43;4.25;;;16.80;99.90;;;;;;5092961;28;20035;-74
2022/05/03 10:00:04;;;;;;;5.25;4.15;;;16.90;99.90;;;;;;5092405;28;20093;-75
2022/05/03 10:02:30;;;;;;;5.57;3.75;;;16.80;99.90;;;;;;5093166;28;20066;-74
2022/05/03 10:04:57;;;;;;;5.82;4.35;;;16.80;99.90;;;;;;5094404;28;20044;-75
2022/05/03 10:07:24;;;;;;;4.40;3.78;;;16.90;99.90;;;;;;5094009;28;20077;-75
2022/05/03 10:09:50;;;;;;;4.60;3.33;;;17.00;99.90;;;;;;5092904;28;20044;-75
2022/05/03 10:12:16;;;;;;;5.25;3.95;;;17.00;99.90;;;;;;5093684;28;20018;-75
2022/05/03 10:14:43;;;;;;;5.32;3.42;;;17.10;99.90;;;;;;5092917;28;20024;-74
2022/05/03 10:22:48;;;;;;;4.85;2.95;;;17.20;99.90;;;;;;5094203;28;20043;-74
2022/05/03 10:25:15;;;;;;;5.97;2.72;;;17.30;99.90;;;;;;5092139;28;20107;-74
2022/05/03 10:27:55;;;;;;;4.18;3.13;;;17.30;99.90;;;;;;5093992;28;20055;-74
2022/05/03 10:30:22;;;;;;;4.97;3.40;;;17.40;99.90;;;;;;5093386;28;20089;-75
2022/05/03 10:33:19;;;;;;;4.65;3.40;;;17.50;99.90;;;;;;5093538;28;20062;-74
2022/05/03 10:35:45;;;;;;;3.55;3.03;;;17.50;99.90;;;;;;5093838;28;20062;-74
2022/05/03 10:38:12;;;;;;;3.22;2.80;;;17.50;98.90;;;;;;5091965;28;20023;-74
2022/05/03 10:40:43;;;;;;;4.63;3.28;;;17.60;99.10;;;;;;5092607;28;20039;-75
2022/05/03 10:43:26;;;;;;;3.60;3.00;;;17.70;97.80;;;;;;5091970;28;20042;-74
2022/05/03 10:45:54;;;;;;;3.42;2.88;;;17.60;96.80;;;;;;5093344;28;20400;-74
2022/05/03 10:48:25;;;;;;;5.75;3.88;;;17.60;97.00;;;;;;5091901;28;20028;-75
2022/05/03 10:51:00;;;;;;;3.55;2.85;;;17.60;97.30;;;;;;5092241;28;20385;-74
2022/05/03 10:53:40;;;;;;;4.65;2.85;;;17.60;97.90;;;;;;5091748;28;20024;-75
2022/05/03 10:56:16;;;;;;;4.53;2.83;;;17.60;97.30;;;;;;5092918;28;20024;-75
2022/05/03 10:58:44;;;;;;;4.82;3.03;;;17.70;96.30;;;;;;5093208;28;20550;-75
2022/05/03 11:01:20;;;;;;;5.55;2.78;;;17.90;96.50;;;;;;5092352;28;20550;-74
2022/05/03 11:03:52;;;;;;;3.70;3.00;;;18.00;95.90;;;;;;5091320;28;20385;-74
2022/05/03 11:06:26;;;;;;;5.05;2.60;;;18.10;95.90;;;;;;5090559;28;20124;-75
2022/05/03 11:11:44;;;;;;;3.70;2.20;;;18.30;96.80;;;;;;5092465;28;20050;-74
2022/05/03 11:14:16;;;;;;;3.10;2.35;;;18.20;95.50;;;;;;5090636;28;20358;-75
2022/05/03 11:17:08;;;;;;;3.88;2.80;;;18.40;94.80;;;;;;5090771;28;20070;-74
2022/05/03 11:19:35;;;;;;;;;;;18.40;94.40;;;;;;5091424;28;20069;-75
2022/05/03 11:22:00;;;;;;;4.15;2.60;;;18.40;95.20;;;;;;5090977;28;19911;-73
2022/05/03 11:24:32;;;;;;;3.22;2.08;;;18.60;96.40;;;;;;5090323;28;20020;-75
2022/05/03 11:26:59;;;;;;;;;;;18.60;95.70;;;;;;5090955;28;20077;-76
2022/05/03 11:29:34;;;;;;;4.20;2.08;;;18.70;94.40;;;;;;5090322;28;19908;-74
2022/05/03 11:32:01;;;;;;;3.08;2.10;;;18.90;95.00;;;;;;5091834;28;20024;-73
2022/05/03 11:34:27;;;;;;;7.13;2.20;;;18.90;93.90;;;;;;5091474;28;20081;-76
2022/05/03 11:36:53;;;;;;;4.50;1.95;;;19.00;93.90;;;;;;5090881;28;20118;-76
2022/05/03 11:39:22;;;;;;;5.65;2.65;;;19.00;93.80;;;;;;5091659;28;20419;-76
2022/05/03 11:41:48;;;;;;;3.67;2.97;;;19.20;93.90;;;;;;5091998;28;20103;-76
2022/05/03 11:44:15;;;;;;;4.10;3.00;;;19.30;93.60;;;;;;5091217;28;20024;-73
2022/05/03 11:46:43;;;;;;;7.10;3.22;;;19.40;95.30;;;;;;5089752;28;20370;-76
2022/05/03 11:49:10;;;;;;;6.28;2.95;;;19.50;94.50;;;;;;5090068;28;20028;-76
2022/05/03 11:57:10;;;;;;;2.28;2.05;;;19.60;92.60;;;;;;5091240;28;20492;-76
2022/05/03 11:59:36;;;;;;;3.90;1.98;;;19.80;93.00;;;;;;5041654;28;1107258;-76
2022/05/03 12:02:21;;;;;;;2.40;1.90;;;19.80;92.00;;;;;;5092328;28;20077;-75
2022/05/03 12:05:20;;;;;;;3.00;1.90;;;19.90;90.50;;;;;;5091400;28;20073;-76
2022/05/03 12:07:50;;;;;;;3.13;1.80;;;20.00;82.10;;;;;;5037386;28;20401;-76
2022/05/03 12:10:37;;;;;;;7.32;2.35;;;20.20;85.60;;;;;;5090676;28;20085;-75
2022/05/03 12:13:16;;;;;;;4.18;2.20;;;20.40;86.10;;;;;;5092512;28;20109;-76
2022/05/03 12:15:45;;;;;;;3.25;2.72;;;20.70;88.20;;;;;;5091397;28;20043;-76
2022/05/03 12:18:15;;;;;;;4.45;2.65;;;21.00;90.40;;;;;;5090708;28;20178;-76
2022/05/03 12:20:43;;;;;;;3.63;2.63;;;21.20;82.60;;;;;;5092389;28;20127;-76
2022/05/03 12:23:17;;;;;;;4.25;2.53;;;21.30;83.00;;;;;;5091813;28;20111;-77
2022/05/03 12:25:45;;;;;;;5.10;3.20;;;21.30;81.60;;;;;;5092300;28;20081;-75
2022/05/03 12:28:11;;;;;;;5.13;3.25;;;21.10;78.40;;;;;;5090474;28;20082;-76
2022/05/03 12:30:38;;;;;;;5.95;4.38;;;21.20;79.80;;;;;;5091077;28;20024;-75
2022/05/03 12:33:08;;;;;;;6.15;4.25;;;21.30;80.50;;;;;;5092283;28;20031;-76
2022/05/03 12:35:39;;;;;;;11.23;4.30;;;21.50;79.70;;;;;;5092011;28;20403;-75
2022/05/03 12:38:14;;;;;;;7.93;4.63;;;21.60;79.10;;;;;;5091044;28;20077;-75
2022/05/03 12:40:51;;;;;;;5.85;4.80;;;21.60;80.50;;;;;;5092472;28;20028;-75
2022/05/03 12:43:19;;;;;;;7.57;4.70;;;21.30;78.80;;;;;;5090528;28;20027;-76
2022/05/03 12:45:56;;;;;;;6.45;4.55;;;21.10;78.00;;;;;;5090881;28;20040;-75
2022/05/03 12:48:22;;;;;;;7.28;4.00;;;21.00;80.00;;;;;;5091551;28;20028;-75
2022/05/03 12:50:48;;;;;;;29.38;11.93;;;21.00;81.70;;;;;;5090904;28;20024;-75
2022/05/03 12:53:14;;;;;;;17.58;9.38;;;20.90;82.70;;;;;;5090448;28;20032;-75
2022/05/03 12:55:40;;;;;;;17.98;9.27;;;20.90;83.40;;;;;;5090943;28;20078;-76
2022/05/03 13:00:55;;;;;;;8.20;5.35;;;20.80;81.10;;;;;;5095527;28;20066;-76
2022/05/03 13:03:24;;;;;;;6.90;4.90;;;20.90;84.50;;;;;;5095375;28;20055;-76
2022/05/03 13:05:50;;;;;;;9.77;4.70;;;20.90;84.20;;;;;;5095515;28;20050;-76
2022/05/03 13:08:17;;;;;;;6.63;4.45;;;20.80;83.00;;;;;;5093575;28;20446;-76
2022/05/03 13:10:43;;;;;;;7.30;4.55;;;20.80;83.30;;;;;;5093981;28;20055;-76
2022/05/03 13:13:10;;;;;;;7.10;4.68;;;21.20;80.60;;;;;;5095138;28;20409;-76
2022/05/03 13:15:37;;;;;;;6.85;4.28;;;21.70;77.80;;;;;;5093573;28;20538;-75
2022/05/03 13:18:03;;;;;;;6.95;4.40;;;21.90;76.50;;;;;;5095401;28;20024;-76
2022/05/03 13:20:29;;;;;;;12.05;4.70;;;22.10;76.40;;;;;;5094724;28;20453;-76
2022/05/03 13:22:55;;;;;;;21.42;6.25;;;22.90;79.10;;;;;;5093993;28;20119;-76
2022/05/03 13:25:22;;;;;;;6.25;4.47;;;23.00;77.50;;;;;;5093276;28;20081;-76
2022/05/03 13:27:48;;;;;;;22.30;5.68;;;22.70;72.00;;;;;;5093880;28;20169;-76
2022/05/03 13:30:15;;;;;;;15.55;5.85;;;22.40;71.70;;;;;;5093274;28;20025;-76
2022/05/03 13:32:41;;;;;;;6.72;4.78;;;22.40;73.30;;;;;;5093725;28;20024;-76
2022/05/03 13:35:08;;;;;;;9.85;4.97;;;22.40;70.80;;;;;;5093650;28;20024;-76
2022/05/03 13:40:30;;;;;;;7.32;5.00;;;22.10;71.40;;;;;;5094376;28;20530;-76
2022/05/03 13:42:58;;;;;;;7.18;4.80;;;22.10;71.60;;;;;;5094955;28;20028;-76